sensor_id;sensor_type;location;lat;lon;timestamp;pressure;altitude;pressure_sealevel;temperature;humidity
9189;BME280;34313;50.780;6.084;2023-09-18T00:02:20;98601.38;;;18.91;100.00
9189;BME280;34313;50.780;6.084;2023-09-18T00:04:45;98591.22;;;18.86;100.00
9189;BME280;34313;50.780;6.084;2023-09-18T00:07:11;98592.22;;;18.85;100.00
9189;BME280;34313;50.780;6.084;2023-09-18T00:09:36;98573.47;;;18.77;100.00
9189;BME280;34313;50.780;6.084;2023-09-18T00:12:01;98561.28;;;18.75;100.00
9189;BME280;34313;50.780;6.084;2023-09-18T00:14:27;98564.94;;;18.74;100.00
9189;BME280;34313;50.780;6.084;2023-09-18T00:16:52;98551.94;;;18.79;100.00
9189;BME280;34313;50.780;6.084;2023-09-18T00:19:17;98549.63;;;18.67;100.00
9189;BME280;34313;50.780;6.084;2023-09-18T00:21:43;98549.78;;;18.66;100.00
9189;BME280;34313;50.780;6.084;2023-09-18T00:24:08;98542.41;;;18.60;100.00
9189;BME280;34313;50.780;6.084;2023-09-18T00:26:33;98541.91;;;18.56;100.00
9189;BME280;34313;50.780;6.084;2023-09-18T00:28:59;98539.41;;;18.55;100.00
9189;BME280;34313;50.780;6.084;2023-09-18T00:31:24;98542.56;;;18.50;100.00
9189;BME280;34313;50.780;6.084;2023-09-18T00:33:49;98547.25;;;18.48;100.00
9189;BME280;34313;50.780;6.084;2023-09-18T00:36:15;98547.25;;;18.48;100.00
9189;BME280;34313;50.780;6.084;2023-09-18T00:38:40;98558.75;;;18.48;100.00
9189;BME280;34313;50.780;6.084;2023-09-18T00:41:05;98546.53;;;18.46;100.00
9189;BME280;34313;50.780;6.084;2023-09-18T00:43:31;98542.91;;;18.47;100.00
9189;BME280;34313;50.780;6.084;2023-09-18T00:45:56;98539.41;;;18.46;100.00
9189;BME280;34313;50.780;6.084;2023-09-18T00:48:22;98543.41;;;18.50;100.00
9189;BME280;34313;50.780;6.084;2023-09-18T00:50:48;98551.41;;;18.50;100.00
9189;BME280;34313;50.780;6.084;2023-09-18T00:53:17;98559.72;;;18.47;100.00
9189;BME280;34313;50.780;6.084;2023-09-18T00:55:44;98566.75;;;18.48;100.00
9189;BME280;34313;50.780;6.084;2023-09-18T00:58:10;98565.06;;;18.47;100.00
9189;BME280;34313;50.780;6.084;2023-09-18T01:00:35;98562.25;;;18.49;100.00
9189;BME280;34313;50.780;6.084;2023-09-18T01:03:01;98553.09;;;18.51;100.00
9189;BME280;34313;50.780;6.084;2023-09-18T01:05:33;98535.25;;;18.60;100.00
9189;BME280;34313;50.780;6.084;2023-09-18T01:07:58;98515.22;;;18.56;100.00
9189;BME280;34313;50.780;6.084;2023-09-18T01:10:29;98520.06;;;18.61;100.00
9189;BME280;34313;50.780;6.084;2023-09-18T01:13:08;98525.41;;;18.61;100.00
9189;BME280;34313;50.780;6.084;2023-09-18T01:15:43;98518.75;;;18.57;100.00
9189;BME280;34313;50.780;6.084;2023-09-18T01:18:10;98511.22;;;18.52;100.00
9189;BME280;34313;50.780;6.084;2023-09-18T01:20:35;98514.56;;;18.54;100.00
9189;BME280;34313;50.780;6.084;2023-09-18T01:23:01;98514.72;;;18.52;100.00
9189;BME280;34313;50.780;6.084;2023-09-18T01:25:26;98508.88;;;18.49;100.00
9189;BME280;34313;50.780;6.084;2023-09-18T01:27:51;98494.38;;;18.51;100.00
9189;BME280;34313;50.780;6.084;2023-09-18T01:30:17;98498.03;;;18.50;100.00
9189;BME280;34313;50.780;6.084;2023-09-18T01:32:44;98484.84;;;18.49;100.00
9189;BME280;34313;50.780;6.084;2023-09-18T01:35:11;98484.53;;;18.52;100.00
9189;BME280;34313;50.780;6.084;2023-09-18T01:37:37;98487.03;;;18.54;100.00
9189;BME280;34313;50.780;6.084;2023-09-18T01:40:05;98475.72;;;18.51;100.00
9189;BME280;34313;50.780;6.084;2023-09-18T01:42:34;98484.88;;;18.57;100.00
9189;BME280;34313;50.780;6.084;2023-09-18T01:45:00;98475.00;;;18.49;100.00
9189;BME280;34313;50.780;6.084;2023-09-18T01:47:26;98483.19;;;18.56;100.00
9189;BME280;34313;50.780;6.084;2023-09-18T01:49:54;98467.53;;;18.53;100.00
9189;BME280;34313;50.780;6.084;2023-09-18T01:52:19;98481.72;;;18.62;100.00
9189;BME280;34313;50.780;6.084;2023-09-18T01:54:45;98494.72;;;18.73;100.00
9189;BME280;34313;50.780;6.084;2023-09-18T01:57:10;98491.38;;;18.79;100.00
9189;BME280;34313;50.780;6.084;2023-09-18T01:59:37;98508.44;;;18.95;100.00
9189;BME280;34313;50.780;6.084;2023-09-18T02:02:02;98505.44;;;19.06;100.00
9189;BME280;34313;50.780;6.084;2023-09-18T02:04:31;98496.69;;;19.37;100.00
9189;BME280;34313;50.780;6.084;2023-09-18T02:06:57;98482.78;;;19.58;100.00
9189;BME280;34313;50.780;6.084;2023-09-18T02:09:22;98477.03;;;19.86;100.00
9189;BME280;34313;50.780;6.084;2023-09-18T02:11:48;98472.81;;;20.23;100.00
9189;BME280;34313;50.780;6.084;2023-09-18T02:14:14;98470.22;;;20.37;100.00
9189;BME280;34313;50.780;6.084;2023-09-18T02:16:41;98465.56;;;20.63;100.00
9189;BME280;34313;50.780;6.084;2023-09-18T02:19:10;98464.59;;;20.78;100.00
9189;BME280;34313;50.780;6.084;2023-09-18T02:21:37;98462.78;;;20.94;100.00
9189;BME280;34313;50.780;6.084;2023-09-18T02:24:03;98459.31;;;21.08;100.00
9189;BME280;34313;50.780;6.084;2023-09-18T02:26:28;98473.09;;;21.20;100.00
9189;BME280;34313;50.780;6.084;2023-09-18T02:28:55;98459.97;;;21.25;100.00
9189;BME280;34313;50.780;6.084;2023-09-18T02:31:21;98461.38;;;21.36;100.00
9189;BME280;34313;50.780;6.084;2023-09-18T02:33:46;98456.09;;;21.43;100.00
9189;BME280;34313;50.780;6.084;2023-09-18T02:36:12;98461.00;;;21.39;100.00
9189;BME280;34313;50.780;6.084;2023-09-18T02:38:37;98461.09;;;21.31;100.00
9189;BME280;34313;50.780;6.084;2023-09-18T02:41:03;98450.25;;;21.24;100.00
9189;BME280;34313;50.780;6.084;2023-09-18T02:43:28;98435.75;;;21.19;100.00
9189;BME280;34313;50.780;6.084;2023-09-18T02:45:53;98425.03;;;21.04;100.00
9189;BME280;34313;50.780;6.084;2023-09-18T02:48:19;98411.53;;;20.97;100.00
9189;BME280;34313;50.780;6.084;2023-09-18T02:50:45;98409.56;;;20.91;100.00
9189;BME280;34313;50.780;6.084;2023-09-18T02:53:21;98389.50;;;20.72;100.00
9189;BME280;34313;50.780;6.084;2023-09-18T02:55:50;98395.28;;;20.61;100.00
9189;BME280;34313;50.780;6.084;2023-09-18T02:58:16;98395.34;;;20.52;100.00
9189;BME280;34313;50.780;6.084;2023-09-18T03:00:43;98389.88;;;20.46;100.00
9189;BME280;34313;50.780;6.084;2023-09-18T03:03:09;98377.44;;;20.30;100.00
9189;BME280;34313;50.780;6.084;2023-09-18T03:05:34;98374.13;;;20.28;100.00
9189;BME280;34313;50.780;6.084;2023-09-18T03:07:59;98365.97;;;20.21;100.00
9189;BME280;34313;50.780;6.084;2023-09-18T03:10:24;98363.22;;;20.14;100.00
9189;BME280;34313;50.780;6.084;2023-09-18T03:12:50;98350.19;;;20.11;100.00
9189;BME280;34313;50.780;6.084;2023-09-18T03:15:15;98348.88;;;20.07;100.00
9189;BME280;34313;50.780;6.084;2023-09-18T03:17:41;98340.66;;;20.09;100.00
9189;BME280;34313;50.780;6.084;2023-09-18T03:20:07;98333.38;;;20.02;100.00
9189;BME280;34313;50.780;6.084;2023-09-18T03:22:33;98334.72;;;19.98;100.00
9189;BME280;34313;50.780;6.084;2023-09-18T03:24:59;98354.63;;;19.96;100.00
9189;BME280;34313;50.780;6.084;2023-09-18T03:27:24;98352.31;;;19.93;100.00
9189;BME280;34313;50.780;6.084;2023-09-18T03:29:54;98350.59;;;20.00;100.00
9189;BME280;34313;50.780;6.084;2023-09-18T03:32:19;98351.63;;;19.99;100.00
9189;BME280;34313;50.780;6.084;2023-09-18T03:34:45;98347.13;;;19.91;100.00
9189;BME280;34313;50.780;6.084;2023-09-18T03:37:10;98355.53;;;19.88;100.00
9189;BME280;34313;50.780;6.084;2023-09-18T03:39:35;98340.34;;;19.80;100.00
9189;BME280;34313;50.780;6.084;2023-09-18T03:42:00;98344.59;;;19.75;100.00
9189;BME280;34313;50.780;6.084;2023-09-18T03:44:26;98346.78;;;19.63;100.00
9189;BME280;34313;50.780;6.084;2023-09-18T03:46:51;98356.69;;;19.54;100.00
9189;BME280;34313;50.780;6.084;2023-09-18T03:49:16;98364.69;;;19.54;100.00
9189;BME280;34313;50.780;6.084;2023-09-18T03:51:41;98360.25;;;19.46;100.00
9189;BME280;34313;50.780;6.084;2023-09-18T03:54:07;98369.63;;;19.42;100.00
9189;BME280;34313;50.780;6.084;2023-09-18T03:56:32;98361.22;;;19.45;100.00
9189;BME280;34313;50.780;6.084;2023-09-18T03:58:57;98345.06;;;19.39;100.00
9189;BME280;34313;50.780;6.084;2023-09-18T04:01:26;98335.91;;;19.33;100.00
9189;BME280;34313;50.780;6.084;2023-09-18T04:03:51;98343.91;;;19.33;100.00
9189;BME280;34313;50.780;6.084;2023-09-18T04:06:17;98354.44;;;19.35;100.00
9189;BME280;34313;50.780;6.084;2023-09-18T04:08:45;98348.75;;;19.38;100.00
9189;BME280;34313;50.780;6.084;2023-09-18T04:11:10;98337.41;;;19.36;100.00
9189;BME280;34313;50.780;6.084;2023-09-18T04:13:36;98336.38;;;19.37;100.00
9189;BME280;34313;50.780;6.084;2023-09-18T04:16:03;98318.72;;;19.36;100.00
9189;BME280;34313;50.780;6.084;2023-09-18T04:18:29;98316.38;;;19.33;100.00
9189;BME280;34313;50.780;6.084;2023-09-18T04:20:54;98326.72;;;19.36;100.00
9189;BME280;34313;50.780;6.084;2023-09-18T04:23:24;98323.75;;;19.31;100.00
9189;BME280;34313;50.780;6.084;2023-09-18T04:25:51;98313.72;;;19.33;100.00
9189;BME280;34313;50.780;6.084;2023-09-18T04:28:19;98313.38;;;19.36;100.00
9189;BME280;34313;50.780;6.084;2023-09-18T04:30:45;98315.38;;;19.34;100.00
9189;BME280;34313;50.780;6.084;2023-09-18T04:33:12;98334.56;;;19.37;100.00
9189;BME280;34313;50.780;6.084;2023-09-18T04:35:38;98325.06;;;19.35;100.00
9189;BME280;34313;50.780;6.084;2023-09-18T04:38:07;98315.88;;;19.37;100.00
9189;BME280;34313;50.780;6.084;2023-09-18T04:40:36;98314.03;;;19.38;100.00
9189;BME280;34313;50.780;6.084;2023-09-18T04:43:02;98312.50;;;19.35;100.00
9189;BME280;34313;50.780;6.084;2023-09-18T04:45:31;98311.84;;;19.41;100.00
9189;BME280;34313;50.780;6.084;2023-09-18T04:47:57;98310.38;;;19.31;100.00
9189;BME280;34313;50.780;6.084;2023-09-18T04:50:22;98314.88;;;19.30;100.00
9189;BME280;34313;50.780;6.084;2023-09-18T04:52:48;98311.56;;;19.28;100.00
9189;BME280;34313;50.780;6.084;2023-09-18T04:55:16;98320.75;;;19.25;100.00
9189;BME280;34313;50.780;6.084;2023-09-18T04:57:41;98322.06;;;19.30;100.00
9189;BME280;34313;50.780;6.084;2023-09-18T05:00:07;98321.09;;;19.22;100.00
9189;BME280;34313;50.780;6.084;2023-09-18T05:02:34;98324.59;;;19.23;100.00
9189;BME280;34313;50.780;6.084;2023-09-18T05:05:00;98327.63;;;19.20;100.00
9189;BME280;34313;50.780;6.084;2023-09-18T05:07:26;98337.63;;;19.18;100.00
9189;BME280;34313;50.780;6.084;2023-09-18T05:09:52;98347.31;;;19.19;100.00
9189;BME280;34313;50.780;6.084;2023-09-18T05:12:17;98356.31;;;19.26;100.00
9189;BME280;34313;50.780;6.084;2023-09-18T05:14:43;98355.31;;;19.27;100.00
9189;BME280;34313;50.780;6.084;2023-09-18T05:17:13;98369.00;;;19.32;100.00
9189;BME280;34313;50.780;6.084;2023-09-18T05:19:38;98394.34;;;19.36;100.00
9189;BME280;34313;50.780;6.084;2023-09-18T05:22:04;98407.88;;;19.35;100.00
9189;BME280;34313;50.780;6.084;2023-09-18T05:24:29;98391.84;;;19.35;100.00
9189;BME280;34313;50.780;6.084;2023-09-18T05:26:55;98404.03;;;19.37;100.00
9189;BME280;34313;50.780;6.084;2023-09-18T05:29:20;98394.84;;;19.40;100.00
9189;BME280;34313;50.780;6.084;2023-09-18T05:31:46;98387.16;;;19.37;100.00
9189;BME280;34313;50.780;6.084;2023-09-18T05:34:12;98366.81;;;19.36;100.00
9189;BME280;34313;50.780;6.084;2023-09-18T05:36:38;98373.78;;;19.37;100.00
9189;BME280;34313;50.780;6.084;2023-09-18T05:39:03;98381.66;;;19.38;100.00
9189;BME280;34313;50.780;6.084;2023-09-18T05:41:28;98363.09;;;19.37;100.00
9189;BME280;34313;50.780;6.084;2023-09-18T05:43:56;98383.81;;;19.43;100.00
9189;BME280;34313;50.780;6.084;2023-09-18T05:46:22;98389.81;;;19.45;100.00
9189;BME280;34313;50.780;6.084;2023-09-18T05:48:47;98392.16;;;19.40;100.00
9189;BME280;34313;50.780;6.084;2023-09-18T05:51:12;98393.47;;;19.44;100.00
9189;BME280;34313;50.780;6.084;2023-09-18T05:53:38;98381.78;;;19.45;100.00
9189;BME280;34313;50.780;6.084;2023-09-18T05:56:04;98379.13;;;19.45;100.00
9189;BME280;34313;50.780;6.084;2023-09-18T05:58:32;98392.44;;;19.53;100.00
9189;BME280;34313;50.780;6.084;2023-09-18T06:01:00;98406.16;;;19.50;100.00
9189;BME280;34313;50.780;6.084;2023-09-18T06:03:29;98404.78;;;19.54;100.00
9189;BME280;34313;50.780;6.084;2023-09-18T06:06:00;98398.28;;;19.57;100.00
9189;BME280;34313;50.780;6.084;2023-09-18T06:08:26;98405.59;;;19.63;100.00
9189;BME280;34313;50.780;6.084;2023-09-18T06:10:51;98413.94;;;19.60;100.00
9189;BME280;34313;50.780;6.084;2023-09-18T06:13:17;98407.91;;;19.74;100.00
9189;BME280;34313;50.780;6.084;2023-09-18T06:15:42;98412.19;;;19.83;100.00
9189;BME280;34313;50.780;6.084;2023-09-18T06:18:07;98420.19;;;19.92;100.00
9189;BME280;34313;50.780;6.084;2023-09-18T06:20:32;98410.78;;;19.96;100.00
9189;BME280;34313;50.780;6.084;2023-09-18T06:22:58;98409.50;;;19.92;100.00
9189;BME280;34313;50.780;6.084;2023-09-18T06:25:23;98415.63;;;20.00;100.00
9189;BME280;34313;50.780;6.084;2023-09-18T06:27:49;98425.28;;;20.01;100.00
9189;BME280;34313;50.780;6.084;2023-09-18T06:30:14;98428.78;;;20.02;100.00
9189;BME280;34313;50.780;6.084;2023-09-18T06:32:40;98411.22;;;20.08;100.00
9189;BME280;34313;50.780;6.084;2023-09-18T06:35:05;98431.44;;;20.10;100.00
9189;BME280;34313;50.780;6.084;2023-09-18T06:37:31;98428.59;;;20.12;100.00
9189;BME280;34313;50.780;6.084;2023-09-18T06:39:56;98437.75;;;20.17;100.00
9189;BME280;34313;50.780;6.084;2023-09-18T06:42:24;98424.53;;;20.16;100.00
9189;BME280;34313;50.780;6.084;2023-09-18T06:44:49;98424.19;;;20.19;100.00
9189;BME280;34313;50.780;6.084;2023-09-18T06:47:15;98430.25;;;20.13;100.00
9189;BME280;34313;50.780;6.084;2023-09-18T06:49:41;98414.22;;;20.13;100.00
9189;BME280;34313;50.780;6.084;2023-09-18T06:52:07;98408.72;;;20.06;100.00
9189;BME280;34313;50.780;6.084;2023-09-18T06:54:33;98428.94;;;20.09;100.00
9189;BME280;34313;50.780;6.084;2023-09-18T06:56:58;98430.44;;;20.11;100.00
9189;BME280;34313;50.780;6.084;2023-09-18T06:59:23;98428.72;;;20.18;100.00
9189;BME280;34313;50.780;6.084;2023-09-18T07:01:49;98443.56;;;20.21;100.00
9189;BME280;34313;50.780;6.084;2023-09-18T07:04:14;98456.91;;;20.29;100.00
9189;BME280;34313;50.780;6.084;2023-09-18T07:06:39;98468.31;;;20.23;100.00
9189;BME280;34313;50.780;6.084;2023-09-18T07:09:05;98462.19;;;20.14;100.00
9189;BME280;34313;50.780;6.084;2023-09-18T07:11:33;98455.63;;;20.17;100.00
9189;BME280;34313;50.780;6.084;2023-09-18T07:13:58;98465.69;;;20.15;100.00
9189;BME280;34313;50.780;6.084;2023-09-18T07:16:24;98466.50;;;20.15;100.00
9189;BME280;34313;50.780;6.084;2023-09-18T07:18:50;98452.91;;;20.25;100.00
9189;BME280;34313;50.780;6.084;2023-09-18T07:21:15;98453.75;;;20.26;100.00
9189;BME280;34313;50.780;6.084;2023-09-18T07:23:40;98464.03;;;20.37;100.00
9189;BME280;34313;50.780;6.084;2023-09-18T07:26:06;98477.06;;;20.40;100.00
9189;BME280;34313;50.780;6.084;2023-09-18T07:28:31;98493.41;;;20.45;100.00
9189;BME280;34313;50.780;6.084;2023-09-18T07:30:57;98485.88;;;20.49;100.00
9189;BME280;34313;50.780;6.084;2023-09-18T07:33:22;98484.31;;;20.54;100.00
9189;BME280;34313;50.780;6.084;2023-09-18T07:35:49;98490.13;;;20.58;100.00
9189;BME280;34313;50.780;6.084;2023-09-18T07:38:17;98492.91;;;20.73;99.25
9189;BME280;34313;50.780;6.084;2023-09-18T07:40:44;98476.50;;;20.76;98.51
9189;BME280;34313;50.780;6.084;2023-09-18T07:43:09;98477.75;;;20.88;97.10
9189;BME280;34313;50.780;6.084;2023-09-18T07:45:34;98481.34;;;20.95;96.59
9189;BME280;34313;50.780;6.084;2023-09-18T07:48:00;98485.38;;;21.14;95.32
9189;BME280;34313;50.780;6.084;2023-09-18T07:50:25;98486.41;;;21.28;93.92
9189;BME280;34313;50.780;6.084;2023-09-18T07:52:50;98492.03;;;21.19;93.34
9189;BME280;34313;50.780;6.084;2023-09-18T07:55:16;98498.34;;;21.41;92.17
9189;BME280;34313;50.780;6.084;2023-09-18T07:57:41;98501.81;;;22.16;88.13
9189;BME280;34313;50.780;6.084;2023-09-18T08:00:07;98509.47;;;23.13;82.52
9189;BME280;34313;50.780;6.084;2023-09-18T08:02:33;98514.03;;;23.41;79.67
9189;BME280;34313;50.780;6.084;2023-09-18T08:05:00;98508.94;;;23.03;80.04
9189;BME280;34313;50.780;6.084;2023-09-18T08:07:26;98501.53;;;22.83;80.98
9189;BME280;34313;50.780;6.084;2023-09-18T08:09:53;98510.69;;;22.46;81.81
9189;BME280;34313;50.780;6.084;2023-09-18T08:12:18;98533.09;;;22.23;82.97
9189;BME280;34313;50.780;6.084;2023-09-18T08:14:43;98530.75;;;21.99;84.04
9189;BME280;34313;50.780;6.084;2023-09-18T08:17:09;98539.44;;;22.01;84.75
9189;BME280;34313;50.780;6.084;2023-09-18T08:19:35;98531.56;;;21.84;85.02
9189;BME280;34313;50.780;6.084;2023-09-18T08:22:02;98533.69;;;22.04;84.27
9189;BME280;34313;50.780;6.084;2023-09-18T08:24:29;98530.06;;;22.26;83.45
9189;BME280;34313;50.780;6.084;2023-09-18T08:26:54;98533.28;;;22.37;81.98
9189;BME280;34313;50.780;6.084;2023-09-18T08:29:21;98539.09;;;22.40;81.17
9189;BME280;34313;50.780;6.084;2023-09-18T08:31:47;98538.09;;;22.63;80.93
9189;BME280;34313;50.780;6.084;2023-09-18T08:34:12;98527.94;;;22.80;80.02
9189;BME280;34313;50.780;6.084;2023-09-18T08:36:38;98542.09;;;23.10;77.74
9189;BME280;34313;50.780;6.084;2023-09-18T08:39:03;98557.59;;;23.65;75.60
9189;BME280;34313;50.780;6.084;2023-09-18T08:41:32;98551.16;;;23.59;74.87
9189;BME280;34313;50.780;6.084;2023-09-18T08:44:02;98547.03;;;23.63;74.56
9189;BME280;34313;50.780;6.084;2023-09-18T08:46:29;98546.06;;;23.71;74.25
9189;BME280;34313;50.780;6.084;2023-09-18T08:48:55;98547.31;;;23.75;74.17
9189;BME280;34313;50.780;6.084;2023-09-18T08:51:22;98541.44;;;23.58;74.06
9189;BME280;34313;50.780;6.084;2023-09-18T08:53:48;98549.91;;;23.55;74.14
9189;BME280;34313;50.780;6.084;2023-09-18T08:56:14;98546.84;;;23.65;73.84
9189;BME280;34313;50.780;6.084;2023-09-18T08:58:40;98540.59;;;23.57;73.07
9189;BME280;34313;50.780;6.084;2023-09-18T09:01:08;98535.16;;;23.51;73.76
9189;BME280;34313;50.780;6.084;2023-09-18T09:03:38;98538.91;;;23.50;73.51
9189;BME280;34313;50.780;6.084;2023-09-18T09:06:05;98534.44;;;23.64;73.36
9189;BME280;34313;50.780;6.084;2023-09-18T09:08:31;98531.25;;;23.82;72.14
9189;BME280;34313;50.780;6.084;2023-09-18T09:10:56;98540.81;;;23.91;71.95
9189;BME280;34313;50.780;6.084;2023-09-18T09:13:25;98537.34;;;23.97;70.83
9189;BME280;34313;50.780;6.084;2023-09-18T09:15:52;98532.91;;;24.24;70.03
9189;BME280;34313;50.780;6.084;2023-09-18T09:18:19;98542.00;;;24.85;68.51
9189;BME280;34313;50.780;6.084;2023-09-18T09:20:55;98543.28;;;25.09;66.82
9189;BME280;34313;50.780;6.084;2023-09-18T09:23:23;98553.22;;;25.15;65.48
9189;BME280;34313;50.780;6.084;2023-09-18T09:25:48;98562.38;;;25.27;65.27
9189;BME280;34313;50.780;6.084;2023-09-18T09:28:14;98552.44;;;25.55;63.95
9189;BME280;34313;50.780;6.084;2023-09-18T09:30:39;98560.69;;;26.00;62.15
9189;BME280;34313;50.780;6.084;2023-09-18T09:33:05;98545.69;;;26.11;61.13
9189;BME280;34313;50.780;6.084;2023-09-18T09:35:35;98548.72;;;26.73;59.25
9189;BME280;34313;50.780;6.084;2023-09-18T09:38:11;98535.31;;;27.16;57.79
9189;BME280;34313;50.780;6.084;2023-09-18T09:40:40;98522.81;;;27.66;57.12
9189;BME280;34313;50.780;6.084;2023-09-18T09:43:08;98535.47;;;27.90;55.66
9189;BME280;34313;50.780;6.084;2023-09-18T09:45:33;98534.63;;;27.90;54.69
9189;BME280;34313;50.780;6.084;2023-09-18T09:48:03;98531.03;;;27.96;55.07
9189;BME280;34313;50.780;6.084;2023-09-18T09:50:30;98529.84;;;27.30;55.26
9189;BME280;34313;50.780;6.084;2023-09-18T09:52:55;98534.72;;;27.40;55.29
9189;BME280;34313;50.780;6.084;2023-09-18T09:58:00;98541.88;;;27.02;55.98
9189;BME280;34313;50.780;6.084;2023-09-18T10:03:03;98539.25;;;26.89;56.80
9189;BME280;34313;50.780;6.084;2023-09-18T10:05:34;98544.94;;;27.12;56.67
9189;BME280;34313;50.780;6.084;2023-09-18T10:08:04;98550.84;;;27.28;56.16
9189;BME280;34313;50.780;6.084;2023-09-18T10:10:36;98547.41;;;27.14;55.75
9189;BME280;34313;50.780;6.084;2023-09-18T10:13:10;98548.94;;;27.03;56.25
9189;BME280;34313;50.780;6.084;2023-09-18T10:15:38;98557.50;;;27.00;56.63
9189;BME280;34313;50.780;6.084;2023-09-18T10:18:19;98554.88;;;26.87;56.56
9189;BME280;34313;50.780;6.084;2023-09-18T10:20:51;98557.66;;;26.73;57.10
9189;BME280;34313;50.780;6.084;2023-09-18T10:23:34;98562.38;;;26.85;56.66
9189;BME280;34313;50.780;6.084;2023-09-18T10:26:04;98554.25;;;27.16;56.12
9189;BME280;34313;50.780;6.084;2023-09-18T10:28:31;98560.75;;;27.09;55.03
9189;BME280;34313;50.780;6.084;2023-09-18T10:30:57;98546.28;;;26.96;54.99
9189;BME280;34313;50.780;6.084;2023-09-18T10:33:23;98550.19;;;26.75;56.25
9189;BME280;34313;50.780;6.084;2023-09-18T10:35:50;98540.78;;;26.78;55.97
9189;BME280;34313;50.780;6.084;2023-09-18T10:38:16;98547.72;;;26.60;55.83
9189;BME280;34313;50.780;6.084;2023-09-18T10:40:43;98549.38;;;26.23;55.70
9189;BME280;34313;50.780;6.084;2023-09-18T10:43:10;98548.16;;;26.12;56.71
9189;BME280;34313;50.780;6.084;2023-09-18T10:45:36;98551.69;;;26.19;57.16
9189;BME280;34313;50.780;6.084;2023-09-18T10:48:03;98552.91;;;26.17;57.44
9189;BME280;34313;50.780;6.084;2023-09-18T10:50:29;98551.19;;;26.36;57.28
9189;BME280;34313;50.780;6.084;2023-09-18T10:52:57;98558.91;;;26.26;56.19
9189;BME280;34313;50.780;6.084;2023-09-18T10:55:23;98550.63;;;26.14;56.54
9189;BME280;34313;50.780;6.084;2023-09-18T10:57:59;98549.25;;;25.91;56.78
9189;BME280;34313;50.780;6.084;2023-09-18T11:00:25;98556.50;;;25.91;56.46
9189;BME280;34313;50.780;6.084;2023-09-18T11:02:53;98554.47;;;25.59;57.66
9189;BME280;34313;50.780;6.084;2023-09-18T11:05:34;98543.88;;;25.64;57.29
9189;BME280;34313;50.780;6.084;2023-09-18T11:11:02;98559.25;;;25.71;56.83
9189;BME280;34313;50.780;6.084;2023-09-18T11:13:51;98551.19;;;25.44;57.39
9189;BME280;34313;50.780;6.084;2023-09-18T11:19:13;98565.09;;;25.47;57.39
9189;BME280;34313;50.780;6.084;2023-09-18T11:21:37;98546.00;;;25.36;57.55
9189;BME280;34313;50.780;6.084;2023-09-18T11:24:08;98556.59;;;25.44;57.42
9189;BME280;34313;50.780;6.084;2023-09-18T11:26:41;98548.47;;;25.51;56.87
9189;BME280;34313;50.780;6.084;2023-09-18T11:29:13;98544.09;;;25.63;56.11
9189;BME280;34313;50.780;6.084;2023-09-18T11:31:46;98558.03;;;25.53;55.25
9189;BME280;34313;50.780;6.084;2023-09-18T11:36:59;98556.56;;;25.64;55.24
9189;BME280;34313;50.780;6.084;2023-09-18T11:39:38;98556.09;;;25.94;54.56
9189;BME280;34313;50.780;6.084;2023-09-18T11:44:35;98548.91;;;26.26;53.40
9189;BME280;34313;50.780;6.084;2023-09-18T11:47:07;98552.13;;;26.10;53.55
9189;BME280;34313;50.780;6.084;2023-09-18T11:49:32;98546.22;;;26.26;53.70
9189;BME280;34313;50.780;6.084;2023-09-18T11:51:59;98548.75;;;26.21;53.82
9189;BME280;34313;50.780;6.084;2023-09-18T11:54:25;98547.13;;;26.07;54.71
9189;BME280;34313;50.780;6.084;2023-09-18T11:56:50;98546.34;;;25.86;54.39
9189;BME280;34313;50.780;6.084;2023-09-18T11:59:15;98535.16;;;25.69;54.58
9189;BME280;34313;50.780;6.084;2023-09-18T12:01:42;98530.59;;;25.70;55.10
9189;BME280;34313;50.780;6.084;2023-09-18T12:04:11;98526.66;;;25.65;55.46
9189;BME280;34313;50.780;6.084;2023-09-18T12:06:39;98519.78;;;25.76;55.50
9189;BME280;34313;50.780;6.084;2023-09-18T12:09:06;98528.69;;;25.90;54.79
9189;BME280;34313;50.780;6.084;2023-09-18T12:11:35;98520.00;;;25.95;54.11
9189;BME280;34313;50.780;6.084;2023-09-18T12:14:04;98522.44;;;26.03;53.29
9189;BME280;34313;50.780;6.084;2023-09-18T12:16:30;98526.56;;;26.12;53.28
9189;BME280;34313;50.780;6.084;2023-09-18T12:18:56;98520.47;;;26.30;52.53
9189;BME280;34313;50.780;6.084;2023-09-18T12:21:22;98521.63;;;26.48;52.40
9189;BME280;34313;50.780;6.084;2023-09-18T12:23:47;98531.50;;;26.67;51.95
9189;BME280;34313;50.780;6.084;2023-09-18T12:26:14;98519.69;;;26.55;51.68
9189;BME280;34313;50.780;6.084;2023-09-18T12:28:42;98526.34;;;26.52;51.67
9189;BME280;34313;50.780;6.084;2023-09-18T12:31:12;98528.19;;;26.65;51.58
9189;BME280;34313;50.780;6.084;2023-09-18T12:33:39;98527.53;;;26.70;50.65
9189;BME280;34313;50.780;6.084;2023-09-18T12:36:05;98520.28;;;26.95;50.43
9189;BME280;34313;50.780;6.084;2023-09-18T12:38:31;98526.59;;;27.14;50.25
9189;BME280;34313;50.780;6.084;2023-09-18T12:40:57;98540.94;;;27.15;50.48
9189;BME280;34313;50.780;6.084;2023-09-18T12:43:33;98516.25;;;27.05;48.41
9189;BME280;34313;50.780;6.084;2023-09-18T12:45:58;98517.94;;;27.06;48.76
9189;BME280;34313;50.780;6.084;2023-09-18T12:48:24;98537.03;;;27.36;48.29
9189;BME280;34313;50.780;6.084;2023-09-18T12:50:52;98517.13;;;27.30;48.29
9189;BME280;34313;50.780;6.084;2023-09-18T12:53:22;98508.44;;;27.22;48.94
9189;BME280;34313;50.780;6.084;2023-09-18T12:55:48;98523.94;;;27.08;48.55
9189;BME280;34313;50.780;6.084;2023-09-18T12:58:21;98510.44;;;26.76;49.63
9189;BME280;34313;50.780;6.084;2023-09-18T13:00:49;98506.56;;;26.65;50.23
9189;BME280;34313;50.780;6.084;2023-09-18T13:03:15;98499.09;;;26.60;50.54
9189;BME280;34313;50.780;6.084;2023-09-18T13:05:41;98511.66;;;26.41;50.73
9189;BME280;34313;50.780;6.084;2023-09-18T13:08:07;98512.34;;;26.30;51.50
9189;BME280;34313;50.780;6.084;2023-09-18T13:10:44;98505.75;;;26.19;51.50
9189;BME280;34313;50.780;6.084;2023-09-18T13:13:16;98501.63;;;26.10;51.67
9189;BME280;34313;50.780;6.084;2023-09-18T13:15:41;98497.25;;;26.16;51.82
9189;BME280;34313;50.780;6.084;2023-09-18T13:18:12;98496.91;;;25.99;51.14
9189;BME280;34313;50.780;6.084;2023-09-18T13:20:37;98483.81;;;25.89;50.56